Time;durP1;ratioP1;P1;durP2;ratioP2;P2;SDS_P1;SDS_P2;PMS_P1;PMS_P2;Temp;Humidity;BMP_temperature;BMP_pressure;BME280_temperature;BME280_humidity;BME280_pressure;Samples;Min_cycle;Max_cycle;Signal;HPM_P1;HPM_P2
2022/08/16 00:01:01;;;;;;;8.70;4.77;;;;;;;;;;5036030;28;20435;-69
2022/08/16 00:03:27;;;;;;;4.20;4.00;;;;;;;;;;5036021;28;20444;-70
2022/08/16 00:05:53;;;;;;;4.77;4.40;;;;;;;;;;5036020;28;20413;-70
2022/08/16 00:08:19;;;;;;;4.27;4.10;;;;;;;;;;5035983;28;20929;-70
2022/08/16 00:10:45;;;;;;;4.43;4.17;;;;;;;;;;5035895;28;20401;-70
2022/08/16 00:13:11;;;;;;;4.60;4.20;;;;;;;;;;5035858;28;20894;-70
2022/08/16 00:15:42;;;;;;;5.10;4.70;;;;;;;;;;5035799;28;20419;-70
2022/08/16 00:18:09;;;;;;;5.03;4.70;;;;;;;;;;5035668;28;20463;-70
2022/08/16 00:20:36;;;;;;;4.80;4.37;;;;;;;;;;5035699;28;20418;-70
2022/08/16 00:23:02;;;;;;;5.03;4.73;;;;;;;;;;5035695;28;20485;-70
2022/08/16 00:25:28;;;;;;;4.57;4.27;;;;;;;;;;5035628;28;20416;-70
2022/08/16 00:27:54;;;;;;;4.33;4.17;;;;;;;;;;5034818;28;20416;-70
2022/08/16 00:30:21;;;;;;;4.77;4.47;;;;;;;;;;5035476;28;20443;-70
2022/08/16 00:32:49;;;;;;;4.63;4.50;;;;;;;;;;5035370;28;20767;-70
2022/08/16 00:35:17;;;;;;;5.03;4.57;;;;;;;;;;5035693;28;20400;-70
2022/08/16 00:37:44;;;;;;;5.07;4.60;;;;;;;;;;5035292;28;20468;-70
2022/08/16 00:40:11;;;;;;;4.93;4.63;;;;;;;;;;5035355;28;20407;-70
2022/08/16 00:42:37;;;;;;;4.97;4.70;;;;;;;;;;5035102;28;20459;-70
2022/08/16 00:45:23;;;;;;;7.90;4.40;;;;;;;;;;5035365;28;20392;-70
2022/08/16 00:47:49;;;;;;;5.87;4.80;;;;;;;;;;5035069;28;20755;-70
2022/08/16 00:50:16;;;;;;;5.37;5.00;;;;;;;;;;5035079;28;20761;-70
2022/08/16 00:52:42;;;;;;;5.37;4.97;;;;;;;;;;5035100;28;20459;-70
2022/08/16 00:55:08;;;;;;;6.40;5.20;;;;;;;;;;5035171;28;20427;-70
2022/08/16 00:57:35;;;;;;;5.60;5.23;;;;;;;;;;5034923;28;20771;-70
2022/08/16 01:00:01;;;;;;;5.57;5.23;;;;;;;;;;5034945;28;20412;-70
2022/08/16 01:02:27;;;;;;;6.10;4.90;;;;;;;;;;5034903;28;20492;-70
2022/08/16 01:04:53;;;;;;;5.00;4.70;;;;;;;;;;5034890;28;20902;-70
2022/08/16 01:07:19;;;;;;;5.30;4.93;;;;;;;;;;5034758;28;20404;-70
2022/08/16 01:09:45;;;;;;;5.70;5.30;;;;;;;;;;5034831;28;20465;-70
2022/08/16 01:12:11;;;;;;;5.17;4.97;;;;;;;;;;5034741;28;20399;-70
2022/08/16 01:14:42;;;;;;;5.40;5.00;;;;;;;;;;5034740;28;20408;-70
2022/08/16 01:17:09;;;;;;;5.40;5.10;;;;;;;;;;5034637;28;20759;-70
2022/08/16 01:19:38;;;;;;;5.03;4.93;;;;;;;;;;5016793;28;20481;-70
2022/08/16 01:22:18;;;;;;;5.07;4.77;;;;;;;;;;5034568;28;20419;-70
2022/08/16 01:24:54;;;;;;;5.63;5.33;;;;;;;;;;5034542;28;20426;-70
2022/08/16 01:27:23;;;;;;;6.00;4.70;;;;;;;;;;5016715;28;20928;-70
2022/08/16 01:29:54;;;;;;;5.50;5.20;;;;;;;;;;5034409;28;20781;-70
2022/08/16 01:32:20;;;;;;;5.73;5.40;;;;;;;;;;5034382;28;20939;-70
2022/08/16 01:34:46;;;;;;;5.73;5.33;;;;;;;;;;5034400;28;20420;-70
2022/08/16 01:37:13;;;;;;;12.17;5.43;;;;;;;;;;5034241;28;20423;-70
2022/08/16 01:39:39;;;;;;;6.20;5.67;;;;;;;;;;5016430;28;20892;-69
2022/08/16 01:42:07;;;;;;;5.00;4.80;;;;;;;;;;5034053;28;20873;-69
2022/08/16 01:44:33;;;;;;;7.07;5.43;;;;;;;;;;5034417;28;20506;-70
2022/08/16 01:46:59;;;;;;;5.10;4.80;;;;;;;;;;5034135;28;20414;-70
2022/08/16 01:49:27;;;;;;;5.50;5.20;;;;;;;;;;5034024;28;20943;-70
2022/08/16 01:51:59;;;;;;;5.83;5.33;;;;;;;;;;5034087;28;20407;-69
2022/08/16 01:54:25;;;;;;;5.57;5.30;;;;;;;;;;5033994;28;20402;-70
2022/08/16 01:56:51;;;;;;;5.93;5.43;;;;;;;;;;5033923;28;20496;-70
2022/08/16 01:59:17;;;;;;;5.70;5.27;;;;;;;;;;5033856;28;20466;-69
2022/08/16 02:01:45;;;;;;;5.80;5.50;;;;;;;;;;5034150;28;20424;-70
2022/08/16 02:04:11;;;;;;;5.63;5.13;;;;;;;;;;5033858;28;20400;-70
2022/08/16 02:06:39;;;;;;;4.90;4.77;;;;;;;;;;5033790;28;20479;-70
2022/08/16 02:09:06;;;;;;;6.10;5.53;;;;;;;;;;5034003;28;20417;-70
2022/08/16 02:11:32;;;;;;;6.30;5.53;;;;;;;;;;5033750;28;20392;-70
2022/08/16 02:13:58;;;;;;;5.67;5.13;;;;;;;;;;5033684;28;20408;-70
2022/08/16 02:16:25;;;;;;;5.80;5.50;;;;;;;;;;5033608;28;20410;-70
2022/08/16 02:18:51;;;;;;;6.07;5.67;;;;;;;;;;5033823;28;20473;-69
2022/08/16 02:21:17;;;;;;;6.20;5.60;;;;;;;;;;5033555;28;20458;-70
2022/08/16 02:23:43;;;;;;;5.63;5.13;;;;;;;;;;5033560;28;20482;-70
2022/08/16 02:26:10;;;;;;;7.30;6.20;;;;;;;;;;5033499;28;20398;-69
2022/08/16 02:28:36;;;;;;;5.87;5.60;;;;;;;;;;5033498;28;20829;-69
2022/08/16 02:31:05;;;;;;;7.30;6.10;;;;;;;;;;5033542;28;20908;-70
2022/08/16 02:33:31;;;;;;;6.80;6.20;;;;;;;;;;5033536;28;20409;-70
2022/08/16 02:35:57;;;;;;;7.30;6.80;;;;;;;;;;5033372;28;20399;-69
2022/08/16 02:38:23;;;;;;;7.93;6.37;;;;;;;;;;5033286;28;20542;-70
2022/08/16 02:40:49;;;;;;;6.83;6.20;;;;;;;;;;5033367;28;20421;-70
2022/08/16 02:43:15;;;;;;;7.00;6.30;;;;;;;;;;5033231;28;20554;-69
2022/08/16 02:45:41;;;;;;;9.77;6.30;;;;;;;;;;5033378;28;20412;-69
2022/08/16 02:48:07;;;;;;;7.37;6.73;;;;;;;;;;5033264;28;20409;-70
2022/08/16 02:50:33;;;;;;;6.53;6.13;;;;;;;;;;5033315;28;20410;-69
2022/08/16 02:52:59;;;;;;;6.43;5.93;;;;;;;;;;5037368;28;20411;-69
2022/08/16 02:55:25;;;;;;;9.93;5.90;;;;;;;;;;5037323;28;20476;-70
2022/08/16 02:57:51;;;;;;;6.03;5.60;;;;;;;;;;5019441;28;20975;-70
2022/08/16 03:00:18;;;;;;;5.97;5.77;;;;;;;;;;5037228;28;20495;-69
2022/08/16 03:02:44;;;;;;;6.47;6.17;;;;;;;;;;5037224;28;20402;-70
2022/08/16 03:05:12;;;;;;;6.20;5.80;;;;;;;;;;5037219;28;20397;-69
2022/08/16 03:07:38;;;;;;;6.87;6.23;;;;;;;;;;5037115;28;20425;-69
2022/08/16 03:10:06;;;;;;;6.90;6.23;;;;;;;;;;5037059;28;20454;-69
2022/08/16 03:12:32;;;;;;;6.80;6.50;;;;;;;;;;5037123;28;20891;-69
2022/08/16 03:14:58;;;;;;;7.43;6.60;;;;;;;;;;5036937;28;20455;-70
2022/08/16 03:17:25;;;;;;;8.43;6.57;;;;;;;;;;5036848;28;20756;-70
2022/08/16 03:19:52;;;;;;;6.00;5.70;;;;;;;;;;5037114;28;20409;-69
2022/08/16 03:22:19;;;;;;;6.93;6.53;;;;;;;;;;5036803;28;20390;-70
2022/08/16 03:24:45;;;;;;;6.53;6.23;;;;;;;;;;5036903;28;20495;-69
2022/08/16 03:27:11;;;;;;;10.23;6.73;;;;;;;;;;5036763;28;20840;-70
2022/08/16 03:29:37;;;;;;;7.13;6.50;;;;;;;;;;5036680;28;20411;-69
2022/08/16 03:32:03;;;;;;;7.47;6.80;;;;;;;;;;5036625;28;20761;-69
2022/08/16 03:34:30;;;;;;;7.73;7.00;;;;;;;;;;5036564;28;20404;-70
2022/08/16 03:36:57;;;;;;;8.30;7.47;;;;;;;;;;5018782;28;20482;-70
2022/08/16 03:39:24;;;;;;;7.20;6.60;;;;;;;;;;5036402;28;20997;-69
2022/08/16 03:41:50;;;;;;;6.97;6.37;;;;;;;;;;5036481;28;20436;-69
2022/08/16 03:44:16;;;;;;;6.33;5.93;;;;;;;;;;5036237;28;20511;-70
2022/08/16 03:46:42;;;;;;;6.80;6.37;;;;;;;;;;5036396;28;20939;-70
2022/08/16 03:49:10;;;;;;;7.47;6.87;;;;;;;;;;5018496;28;20520;-69
2022/08/16 03:51:36;;;;;;;7.43;6.83;;;;;;;;;;5036496;28;20417;-70
2022/08/16 03:54:02;;;;;;;7.13;6.63;;;;;;;;;;5036303;28;20757;-69
2022/08/16 03:56:28;;;;;;;11.47;6.90;;;;;;;;;;5036203;28;20414;-70
2022/08/16 03:58:55;;;;;;;7.50;7.00;;;;;;;;;;5036163;28;20983;-70
2022/08/16 04:01:22;;;;;;;7.33;6.70;;;;;;;;;;5036141;28;20454;-70
2022/08/16 04:03:48;;;;;;;7.43;6.83;;;;;;;;;;5034801;28;20405;-69
2022/08/16 04:06:14;;;;;;;7.07;6.77;;;;;;;;;;5036005;28;20772;-70
2022/08/16 04:08:40;;;;;;;7.90;7.17;;;;;;;;;;5035964;28;20404;-70
2022/08/16 04:11:06;;;;;;;8.37;7.63;;;;;;;;;;5035956;28;20570;-69
2022/08/16 04:13:33;;;;;;;7.77;7.37;;;;;;;;;;5035967;28;20944;-70
2022/08/16 04:16:01;;;;;;;8.23;7.50;;;;;;;;;;5035887;28;20420;-70
2022/08/16 04:18:27;;;;;;;8.60;7.70;;;;;;;;;;5035731;28;20938;-69
2022/08/16 04:20:53;;;;;;;7.90;7.40;;;;;;;;;;5035611;28;21003;-71
2022/08/16 04:23:19;;;;;;;6.80;6.50;;;;;;;;;;5035975;28;20410;-71
2022/08/16 04:25:45;;;;;;;6.70;6.40;;;;;;;;;;5035597;28;20441;-71
2022/08/16 04:28:12;;;;;;;8.33;7.60;;;;;;;;;;5035905;28;20418;-71
2022/08/16 04:30:38;;;;;;;7.50;7.00;;;;;;;;;;5035512;28;20531;-71
2022/08/16 04:33:04;;;;;;;7.83;7.30;;;;;;;;;;5035556;28;20400;-71
2022/08/16 04:35:31;;;;;;;7.90;7.20;;;;;;;;;;5035520;28;20439;-70
2022/08/16 04:37:57;;;;;;;7.90;6.87;;;;;;;;;;5035327;28;20452;-71
2022/08/16 04:40:24;;;;;;;7.60;7.17;;;;;;;;;;5035320;28;20435;-71
2022/08/16 04:42:50;;;;;;;8.50;7.20;;;;;;;;;;5035367;28;20509;-71
2022/08/16 04:45:16;;;;;;;8.47;7.50;;;;;;;;;;5035282;28;20404;-71
2022/08/16 04:47:43;;;;;;;7.70;7.10;;;;;;;;;;5035328;28;20540;-71
2022/08/16 04:50:11;;;;;;;8.80;6.70;;;;;;;;;;5035203;28;20415;-71
2022/08/16 04:52:37;;;;;;;14.53;7.90;;;;;;;;;;5035089;28;20878;-70
2022/08/16 04:55:09;;;;;;;7.80;7.20;;;;;;;;;;5035193;28;20412;-70
2022/08/16 04:57:35;;;;;;;8.17;7.40;;;;;;;;;;5035293;28;20444;-70
2022/08/16 05:00:01;;;;;;;8.00;7.03;;;;;;;;;;5035244;28;20427;-71
2022/08/16 05:02:27;;;;;;;8.03;7.40;;;;;;;;;;5034988;28;20863;-70
2022/08/16 05:04:53;;;;;;;8.43;8.07;;;;;;;;;;5034910;28;20463;-70
2022/08/16 05:07:19;;;;;;;9.37;8.67;;;;;;;;;;5034875;28;20415;-70
2022/08/16 05:09:45;;;;;;;8.80;8.40;;;;;;;;;;5034867;28;20396;-70
2022/08/16 05:12:11;;;;;;;8.57;7.97;;;;;;;;;;5035063;28;20476;-70
2022/08/16 05:14:37;;;;;;;10.50;9.47;;;;;;;;;;5034406;28;20405;-70
2022/08/16 05:17:03;;;;;;;12.33;9.30;;;;;;;;;;5034683;28;20407;-70
2022/08/16 05:19:29;;;;;;;10.33;9.33;;;;;;;;;;5034538;28;20468;-70
2022/08/16 05:21:55;;;;;;;9.30;8.70;;;;;;;;;;5034813;28;20407;-71
2022/08/16 05:24:21;;;;;;;9.90;9.03;;;;;;;;;;5034569;28;20499;-71
2022/08/16 05:26:48;;;;;;;19.10;17.17;;;;;;;;;;5034451;28;20402;-70
2022/08/16 05:29:13;;;;;;;11.10;9.97;;;;;;;;;;5034708;28;20432;-71
2022/08/16 05:31:39;;;;;;;9.23;8.63;;;;;;;;;;5034710;28;20883;-71
2022/08/16 05:34:05;;;;;;;9.17;8.50;;;;;;;;;;5034341;28;20443;-70
2022/08/16 05:36:33;;;;;;;9.53;8.83;;;;;;;;;;5034247;28;20408;-70
2022/08/16 05:38:59;;;;;;;9.00;8.17;;;;;;;;;;5034249;28;20479;-71
2022/08/16 05:41:25;;;;;;;8.33;7.70;;;;;;;;;;5034161;28;20421;-71
2022/08/16 05:43:51;;;;;;;8.83;8.07;;;;;;;;;;5034097;28;20480;-71
2022/08/16 05:46:18;;;;;;;27.33;24.40;;;;;;;;;;5034133;28;20497;-71
2022/08/16 05:48:44;;;;;;;10.70;10.07;;;;;;;;;;5034098;28;20893;-72
2022/08/16 05:51:10;;;;;;;13.33;10.87;;;;;;;;;;5034147;28;20417;-72
2022/08/16 05:53:36;;;;;;;22.80;10.33;;;;;;;;;;5033924;28;20405;-72
2022/08/16 05:56:03;;;;;;;10.37;9.10;;;;;;;;;;5034120;28;20405;-72
2022/08/16 05:58:29;;;;;;;9.70;8.17;;;;;;;;;;5033958;28;20505;-70
2022/08/16 06:00:58;;;;;;;9.60;8.60;;;;;;;;;;5033877;28;20440;-70
2022/08/16 06:03:24;;;;;;;9.67;8.97;;;;;;;;;;5033922;28;20448;-71
2022/08/16 06:05:50;;;;;;;9.43;8.63;;;;;;;;;;5033805;28;21019;-71
2022/08/16 06:08:15;;;;;;;10.83;9.47;;;;;;;;;;5033964;28;20428;-72
2022/08/16 06:10:41;;;;;;;11.00;8.93;;;;;;;;;;5033726;28;20410;-71
2022/08/16 06:13:07;;;;;;;13.13;11.90;;;;;;;;;;5033722;28;20409;-73
2022/08/16 06:15:33;;;;;;;9.67;8.87;;;;;;;;;;5033686;28;20493;-70
2022/08/16 06:17:59;;;;;;;9.47;8.77;;;;;;;;;;5033590;28;20468;-70
2022/08/16 06:20:26;;;;;;;13.03;11.77;;;;;;;;;;5033585;28;20501;-71
2022/08/16 06:22:55;;;;;;;9.00;7.87;;;;;;;;;;5033562;28;20404;-72
2022/08/16 06:25:21;;;;;;;12.23;8.33;;;;;;;;;;5033020;28;20409;-73
2022/08/16 06:27:47;;;;;;;8.27;7.57;;;;;;;;;;5033338;28;20413;-72
2022/08/16 06:30:13;;;;;;;8.23;7.40;;;;;;;;;;5033715;28;20504;-72
2022/08/16 06:32:39;;;;;;;7.90;7.30;;;;;;;;;;5033669;28;20454;-73
2022/08/16 06:35:06;;;;;;;8.07;7.20;;;;;;;;;;5033404;28;20417;-71
2022/08/16 06:37:32;;;;;;;8.53;7.73;;;;;;;;;;5033321;28;20433;-71
2022/08/16 06:39:58;;;;;;;7.93;7.00;;;;;;;;;;5033362;28;20422;-71
2022/08/16 06:42:24;;;;;;;19.83;16.37;;;;;;;;;;5033473;28;20821;-71
2022/08/16 06:44:51;;;;;;;20.53;18.53;;;;;;;;;;5015677;28;20514;-70
2022/08/16 06:47:17;;;;;;;11.37;8.50;;;;;;;;;;5033276;28;20432;-70
2022/08/16 06:49:43;;;;;;;9.43;8.50;;;;;;;;;;5033285;28;20922;-71
2022/08/16 06:52:08;;;;;;;8.97;8.30;;;;;;;;;;5033283;28;20404;-71
2022/08/16 06:54:35;;;;;;;14.70;9.37;;;;;;;;;;5015492;28;20906;-70
2022/08/16 06:57:01;;;;;;;12.90;7.13;;;;;;;;;;5033296;28;20404;-71
2022/08/16 06:59:27;;;;;;;12.97;8.13;;;;;;;;;;5033148;28;20477;-71
2022/08/16 07:01:53;;;;;;;11.37;7.77;;;;;;;;;;5033500;28;20937;-72
2022/08/16 07:04:19;;;;;;;8.17;7.03;;;;;;;;;;5033197;28;20412;-71
2022/08/16 07:06:45;;;;;;;11.57;9.57;;;;;;;;;;5033136;28;21111;-70
2022/08/16 07:09:14;;;;;;;8.23;7.47;;;;;;;;;;5033109;28;20410;-71
2022/08/16 07:11:40;;;;;;;8.07;7.27;;;;;;;;;;5033082;28;20400;-71
2022/08/16 07:14:06;;;;;;;7.60;6.97;;;;;;;;;;5033108;28;20405;-71
2022/08/16 07:16:32;;;;;;;9.10;7.60;;;;;;;;;;5033061;28;20408;-71
2022/08/16 07:18:58;;;;;;;8.00;7.30;;;;;;;;;;5033116;28;20531;-71
2022/08/16 07:21:24;;;;;;;9.63;7.70;;;;;;;;;;5033230;28;20401;-72
2022/08/16 07:23:50;;;;;;;8.10;7.40;;;;;;;;;;5032971;28;20407;-72
2022/08/16 07:26:23;;;;;;;8.33;7.53;;;;;;;;;;5032974;28;20407;-72
2022/08/16 07:28:49;;;;;;;7.00;6.53;;;;;;;;;;5032985;28;20503;-72
2022/08/16 07:31:16;;;;;;;6.53;6.00;;;;;;;;;;5032918;28;20431;-73
2022/08/16 07:33:43;;;;;;;6.83;6.20;;;;;;;;;;5015317;28;20798;-73
2022/08/16 07:36:10;;;;;;;6.33;5.93;;;;;;;;;;5032959;28;20401;-73
2022/08/16 07:38:36;;;;;;;6.63;6.13;;;;;;;;;;5035907;28;20815;-72
2022/08/16 07:41:02;;;;;;;6.70;6.20;;;;;;;;;;5036528;28;20433;-72
2022/08/16 07:43:28;;;;;;;8.83;5.63;;;;;;;;;;5018480;28;20518;-72
2022/08/16 07:45:54;;;;;;;5.77;5.33;;;;;;;;;;5036367;28;20461;-73
2022/08/16 07:48:20;;;;;;;8.50;5.70;;;;;;;;;;5036349;28;20409;-72
2022/08/16 07:50:46;;;;;;;6.53;5.93;;;;;;;;;;5036268;28;20416;-72
2022/08/16 07:53:13;;;;;;;6.47;5.20;;;;;;;;;;5036336;28;20413;-74
2022/08/16 07:55:39;;;;;;;7.63;5.03;;;;;;;;;;5036273;28;20467;-74
2022/08/16 07:58:05;;;;;;;5.80;4.80;;;;;;;;;;5036270;28;20593;-73
2022/08/16 08:00:31;;;;;;;9.83;5.70;;;;;;;;;;5036119;28;20399;-73
2022/08/16 08:02:59;;;;;;;7.27;5.10;;;;;;;;;;5036128;28;20883;-73
2022/08/16 08:05:26;;;;;;;5.33;4.93;;;;;;;;;;5036135;28;20428;-72
2022/08/16 08:07:52;;;;;;;5.20;4.70;;;;;;;;;;5035827;28;20445;-73
2022/08/16 08:10:18;;;;;;;9.33;5.47;;;;;;;;;;5036011;28;20404;-73
2022/08/16 08:12:46;;;;;;;5.50;5.23;;;;;;;;;;5035972;28;20415;-73
2022/08/16 08:15:12;;;;;;;5.50;5.10;;;;;;;;;;5035773;28;20410;-73
2022/08/16 08:17:39;;;;;;;5.33;5.03;;;;;;;;;;5035799;28;20765;-74
2022/08/16 08:20:06;;;;;;;4.80;4.50;;;;;;;;;;5035693;28;20940;-72
2022/08/16 08:22:32;;;;;;;11.13;5.40;;;;;;;;;;5035808;28;20456;-71
2022/08/16 08:24:58;;;;;;;5.43;5.13;;;;;;;;;;5035817;28;20409;-71
2022/08/16 08:27:25;;;;;;;5.23;4.93;;;;;;;;;;5035651;28;20876;-71
2022/08/16 08:29:51;;;;;;;11.43;5.43;;;;;;;;;;5035614;28;20405;-71
2022/08/16 08:32:20;;;;;;;5.43;4.60;;;;;;;;;;5017860;28;20460;-71
2022/08/16 08:34:46;;;;;;;6.70;6.00;;;;;;;;;;5035496;28;20442;-72
2022/08/16 08:37:12;;;;;;;5.77;5.47;;;;;;;;;;5035425;28;20897;-72
2022/08/16 08:39:38;;;;;;;6.37;5.20;;;;;;;;;;5035742;28;20471;-72
2022/08/16 08:42:04;;;;;;;6.00;5.40;;;;;;;;;;5035303;28;20868;-71
2022/08/16 08:44:30;;;;;;;7.07;5.57;;;;;;;;;;5035208;28;20412;-71
2022/08/16 08:46:57;;;;;;;6.07;5.60;;;;;;;;;;5035407;28;20410;-71
2022/08/16 08:49:23;;;;;;;13.73;5.70;;;;;;;;;;5034681;28;20400;-71
2022/08/16 08:51:49;;;;;;;4.90;4.63;;;;;;;;;;5035156;28;20412;-70
2022/08/16 08:54:15;;;;;;;6.00;5.37;;;;;;;;;;5035137;28;20504;-71
2022/08/16 08:56:41;;;;;;;5.43;4.90;;;;;;;;;;5035111;28;20407;-71
2022/08/16 08:59:08;;;;;;;4.93;4.53;;;;;;;;;;5034849;28;20502;-72
2022/08/16 09:01:35;;;;;;;5.80;5.13;;;;;;;;;;5035047;28;20403;-72
2022/08/16 09:04:02;;;;;;;8.50;5.60;;;;;;;;;;5035051;28;20393;-72
2022/08/16 09:06:30;;;;;;;5.17;4.77;;;;;;;;;;5034912;28;20404;-71
2022/08/16 09:08:56;;;;;;;11.60;5.10;;;;;;;;;;5034855;28;20396;-72
2022/08/16 09:11:22;;;;;;;10.17;6.00;;;;;;;;;;5034836;28;20409;-72
2022/08/16 09:13:49;;;;;;;5.20;4.87;;;;;;;;;;5034932;28;20461;-71
2022/08/16 09:16:16;;;;;;;5.10;4.80;;;;;;;;;;5034815;28;20532;-69
2022/08/16 09:18:42;;;;;;;5.20;4.80;;;;;;;;;;5034568;28;20474;-72
2022/08/16 09:21:08;;;;;;;5.13;4.80;;;;;;;;;;5034672;28;20412;-72
2022/08/16 09:23:35;;;;;;;7.43;5.30;;;;;;;;;;5034630;28;20471;-71
2022/08/16 09:26:01;;;;;;;6.07;5.40;;;;;;;;;;5034426;28;20399;-72
2022/08/16 09:28:27;;;;;;;5.60;4.73;;;;;;;;;;5034549;28;20414;-72
2022/08/16 09:30:54;;;;;;;6.20;4.70;;;;;;;;;;5034472;28;20407;-71
2022/08/16 09:33:20;;;;;;;6.43;4.83;;;;;;;;;;5034258;28;20403;-73
2022/08/16 09:35:47;;;;;;;6.67;5.43;;;;;;;;;;5034259;28;20437;-74
2022/08/16 09:38:13;;;;;;;6.03;5.47;;;;;;;;;;5034231;28;20471;-72
2022/08/16 09:40:41;;;;;;;5.40;4.90;;;;;;;;;;5034143;28;20933;-72
2022/08/16 09:43:08;;;;;;;5.30;4.90;;;;;;;;;;5016374;28;20582;-74
2022/08/16 09:45:37;;;;;;;7.00;4.93;;;;;;;;;;5034169;28;20887;-72
2022/08/16 09:48:04;;;;;;;8.73;5.03;;;;;;;;;;5034220;28;20415;-72
2022/08/16 09:50:31;;;;;;;4.90;4.60;;;;;;;;;;5034034;28;20836;-73
2022/08/16 09:52:57;;;;;;;7.97;4.90;;;;;;;;;;5034085;28;20502;-70
2022/08/16 09:55:23;;;;;;;3.90;3.70;;;;;;;;;;5033989;28;20504;-73
2022/08/16 09:57:49;;;;;;;5.83;4.40;;;;;;;;;;5033955;28;20839;-70
2022/08/16 10:00:15;;;;;;;4.23;3.50;;;;;;;;;;5033312;28;20408;-72
2022/08/16 10:02:41;;;;;;;5.03;4.57;;;;;;;;;;5015889;28;20455;-72
2022/08/16 10:05:07;;;;;;;4.77;4.13;;;;;;;;;;5033906;28;20503;-72
2022/08/16 10:07:33;;;;;;;6.50;4.40;;;;;;;;;;5033798;28;20475;-70
2022/08/16 10:09:59;;;;;;;4.63;4.23;;;;;;;;;;5033742;28;20423;-71
2022/08/16 10:15:12;;;;;;;4.30;4.00;;;;;;;;;;5034042;28;20865;-73
2022/08/16 10:17:41;;;;;;;4.43;3.67;;;;;;;;;;5033596;28;20480;-72
2022/08/16 10:20:09;;;;;;;5.80;4.10;;;;;;;;;;5033580;28;20416;-73
2022/08/16 10:22:35;;;;;;;12.50;4.20;;;;;;;;;;5033494;28;20416;-71
2022/08/16 10:25:01;;;;;;;4.27;4.00;;;;;;;;;;5033828;28;20408;-73
2022/08/16 10:27:27;;;;;;;4.30;3.97;;;;;;;;;;5033812;28;20762;-71
2022/08/16 10:29:53;;;;;;;4.40;4.03;;;;;;;;;;5033639;28;20439;-71
2022/08/16 10:32:19;;;;;;;4.27;3.93;;;;;;;;;;5033489;28;20497;-72
2022/08/16 10:34:46;;;;;;;5.13;4.33;;;;;;;;;;5033491;28;20401;-71
2022/08/16 10:37:12;;;;;;;3.67;3.47;;;;;;;;;;5033432;28;20412;-70
2022/08/16 10:39:38;;;;;;;5.80;4.17;;;;;;;;;;5033266;28;20833;-71
2022/08/16 10:42:05;;;;;;;5.37;3.90;;;;;;;;;;5033310;28;20404;-71
2022/08/16 10:44:31;;;;;;;6.63;3.80;;;;;;;;;;5033343;28;20916;-70
2022/08/16 10:46:57;;;;;;;4.00;3.70;;;;;;;;;;5033376;28;20432;-72
2022/08/16 10:49:23;;;;;;;3.33;3.13;;;;;;;;;;5033303;28;20409;-71
2022/08/16 10:51:49;;;;;;;5.03;3.60;;;;;;;;;;5033298;28;20525;-72
2022/08/16 10:54:16;;;;;;;4.73;3.77;;;;;;;;;;5033335;28;20415;-69
2022/08/16 10:56:42;;;;;;;3.30;3.00;;;;;;;;;;5033341;28;20450;-70
2022/08/16 10:59:09;;;;;;;3.13;3.03;;;;;;;;;;5033169;28;20942;-72
2022/08/16 11:01:35;;;;;;;6.37;2.87;;;;;;;;;;5033228;28;20399;-72
2022/08/16 11:04:01;;;;;;;2.80;2.80;;;;;;;;;;5033305;28;20431;-72
2022/08/16 11:06:27;;;;;;;4.30;2.80;;;;;;;;;;5033184;28;20891;-73
2022/08/16 11:08:53;;;;;;;3.40;2.47;;;;;;;;;;5033138;28;20405;-72
2022/08/16 11:11:21;;;;;;;3.40;2.80;;;;;;;;;;5033228;28;20405;-74
2022/08/16 11:13:47;;;;;;;5.13;3.40;;;;;;;;;;5036701;28;20408;-73
2022/08/16 11:16:13;;;;;;;3.30;3.20;;;;;;;;;;5036972;28;20875;-72
2022/08/16 11:18:40;;;;;;;4.20;3.87;;;;;;;;;;5036886;28;20524;-72
2022/08/16 11:21:06;;;;;;;3.97;3.77;;;;;;;;;;5036829;28;20408;-73
2022/08/16 11:23:32;;;;;;;3.67;3.43;;;;;;;;;;5036855;28;20416;-72
2022/08/16 11:25:58;;;;;;;3.53;2.77;;;;;;;;;;5036822;28;20894;-70
2022/08/16 11:28:24;;;;;;;3.27;3.00;;;;;;;;;;5036816;28;20412;-72
2022/08/16 11:30:50;;;;;;;5.33;3.30;;;;;;;;;;5036710;28;20231;-70
2022/08/16 11:33:16;;;;;;;3.73;2.93;;;;;;;;;;5036737;28;20416;-72
2022/08/16 11:35:42;;;;;;;2.90;2.80;;;;;;;;;;5036678;28;20827;-71
2022/08/16 11:38:10;;;;;;;3.63;3.43;;;;;;;;;;5036625;28;20458;-70
2022/08/16 11:40:38;;;;;;;5.20;2.80;;;;;;;;;;5036740;28;20404;-69
2022/08/16 11:43:05;;;;;;;2.77;2.57;;;;;;;;;;5036536;28;20521;-70
2022/08/16 11:45:32;;;;;;;3.73;3.53;;;;;;;;;;5036577;28;20410;-70
2022/08/16 11:47:59;;;;;;;5.00;3.57;;;;;;;;;;5036410;28;20404;-72
2022/08/16 11:50:25;;;;;;;3.70;3.40;;;;;;;;;;5036349;28;20399;-73
2022/08/16 11:52:51;;;;;;;3.53;3.23;;;;;;;;;;5036265;28;20487;-74
2022/08/16 11:55:18;;;;;;;3.67;3.57;;;;;;;;;;5036191;28;20399;-74
2022/08/16 11:57:44;;;;;;;6.83;3.20;;;;;;;;;;5036148;28;20491;-75
2022/08/16 12:00:12;;;;;;;7.67;3.07;;;;;;;;;;5018477;28;20530;-72
2022/08/16 12:02:38;;;;;;;3.60;3.40;;;;;;;;;;5036147;28;20408;-73
2022/08/16 12:05:05;;;;;;;3.63;3.53;;;;;;;;;;5036086;28;20416;-73
2022/08/16 12:07:31;;;;;;;3.87;3.47;;;;;;;;;;5036053;28;20407;-74
2022/08/16 12:09:57;;;;;;;5.70;2.90;;;;;;;;;;5036234;28;20420;-74
2022/08/16 12:12:23;;;;;;;3.70;3.20;;;;;;;;;;5036265;28;20760;-74
2022/08/16 12:14:49;;;;;;;4.83;3.27;;;;;;;;;;5035941;28;20451;-75
2022/08/16 12:17:17;;;;;;;3.30;3.10;;;;;;;;;;5035856;28;20408;-75
2022/08/16 12:19:43;;;;;;;3.70;3.50;;;;;;;;;;5035878;28;20475;-74
2022/08/16 12:22:09;;;;;;;3.50;3.30;;;;;;;;;;5035809;28;20479;-75
2022/08/16 12:24:35;;;;;;;3.00;2.90;;;;;;;;;;5034722;28;20414;-74
2022/08/16 12:27:02;;;;;;;6.40;3.30;;;;;;;;;;5035625;28;20741;-74
2022/08/16 12:29:28;;;;;;;3.70;3.40;;;;;;;;;;5035774;28;20820;-74
2022/08/16 12:31:54;;;;;;;3.13;2.90;;;;;;;;;;5035476;28;20802;-72
2022/08/16 12:34:20;;;;;;;3.40;3.10;;;;;;;;;;5035576;28;20400;-74
2022/08/16 12:36:46;;;;;;;3.20;3.00;;;;;;;;;;5018062;28;20786;-72
2022/08/16 12:39:13;;;;;;;3.53;3.00;;;;;;;;;;5035407;28;20475;-75
2022/08/16 12:41:39;;;;;;;2.60;2.50;;;;;;;;;;5035642;28;20411;-75
2022/08/16 12:44:05;;;;;;;4.57;2.70;;;;;;;;;;5035313;28;20605;-72
2022/08/16 12:46:32;;;;;;;2.43;2.23;;;;;;;;;;5035320;28;20401;-73
2022/08/16 12:48:58;;;;;;;3.60;2.30;;;;;;;;;;5035343;28;20448;-71
2022/08/16 12:51:31;;;;;;;4.13;2.80;;;;;;;;;;5035221;28;20397;-72
2022/08/16 12:53:57;;;;;;;2.77;2.50;;;;;;;;;;5035161;28;20408;-71
2022/08/16 12:56:25;;;;;;;2.70;2.50;;;;;;;;;;5035375;28;20408;-72
2022/08/16 12:58:51;;;;;;;2.50;2.40;;;;;;;;;;5035267;28;20482;-72
2022/08/16 13:01:21;;;;;;;3.40;2.73;;;;;;;;;;5035112;28;20886;-72
2022/08/16 13:03:48;;;;;;;2.90;2.70;;;;;;;;;;5034977;28;20409;-77
2022/08/16 13:06:14;;;;;;;2.63;2.33;;;;;;;;;;5034973;28;20474;-76
2022/08/16 13:08:41;;;;;;;2.70;2.50;;;;;;;;;;5034933;28;20424;-78
2022/08/16 13:11:07;;;;;;;4.10;2.03;;;;;;;;;;5035047;28;20400;-75
2022/08/16 13:13:35;;;;;;;2.40;2.30;;;;;;;;;;5034932;28;20891;-75
2022/08/16 13:16:03;;;;;;;2.77;2.57;;;;;;;;;;5034894;28;20404;-75
2022/08/16 13:18:29;;;;;;;2.67;2.00;;;;;;;;;;5034747;28;20464;-77
2022/08/16 13:20:56;;;;;;;2.73;2.53;;;;;;;;;;5034694;28;20405;-78
2022/08/16 13:23:22;;;;;;;4.50;2.43;;;;;;;;;;5034649;28;20451;-73
2022/08/16 13:25:49;;;;;;;3.00;2.80;;;;;;;;;;5034919;28;20411;-81
2022/08/16 13:28:15;;;;;;;3.80;2.87;;;;;;;;;;5034878;28;20396;-78
2022/08/16 13:30:43;;;;;;;2.80;2.60;;;;;;;;;;5034853;28;20409;-77
2022/08/16 13:33:11;;;;;;;2.63;2.40;;;;;;;;;;5034528;28;20551;-74
2022/08/16 13:35:38;;;;;;;8.80;2.80;;;;;;;;;;5034265;28;20408;-80
2022/08/16 13:38:04;;;;;;;5.10;3.37;;;;;;;;;;5034435;28;20459;-78
2022/08/16 13:40:30;;;;;;;2.70;2.60;;;;;;;;;;5034441;28;20467;-78
2022/08/16 13:42:56;;;;;;;2.40;2.30;;;;;;;;;;5034215;28;20471;-77
2022/08/16 13:45:22;;;;;;;2.30;2.20;;;;;;;;;;5034607;28;20434;-76
2022/08/16 13:47:48;;;;;;;2.67;2.57;;;;;;;;;;5034235;28;20967;-78
2022/08/16 13:50:14;;;;;;;7.70;2.80;;;;;;;;;;5034239;28;20420;-76
2022/08/16 13:52:41;;;;;;;2.80;2.70;;;;;;;;;;5034100;28;20261;-80
2022/08/16 13:55:07;;;;;;;2.20;2.20;;;;;;;;;;5034409;28;20874;-74
2022/08/16 13:57:33;;;;;;;2.80;2.60;;;;;;;;;;5034393;28;20400;-76
2022/08/16 14:00:00;;;;;;;6.57;3.10;;;;;;;;;;5033989;28;20471;-81
2022/08/16 14:02:26;;;;;;;2.00;2.00;;;;;;;;;;5034218;28;20400;-83
2022/08/16 14:04:52;;;;;;;2.53;2.43;;;;;;;;;;5033903;28;20408;-77
2022/08/16 14:07:18;;;;;;;2.83;2.43;;;;;;;;;;5033844;28;20454;-74
2022/08/16 14:09:44;;;;;;;6.90;3.10;;;;;;;;;;5033877;28;20412;-81
2022/08/16 14:12:19;;;;;;;2.17;2.17;;;;;;;;;;5033856;28;20398;-82
2022/08/16 14:14:45;;;;;;;2.90;2.57;;;;;;;;;;5033835;28;20770;-80
2022/08/16 14:17:11;;;;;;;2.83;2.70;;;;;;;;;;5033777;28;20404;-80
2022/08/16 14:19:37;;;;;;;4.20;2.67;;;;;;;;;;5033587;28;20470;-79
2022/08/16 14:22:04;;;;;;;4.23;2.40;;;;;;;;;;5033671;28;20396;-77
2022/08/16 14:24:30;;;;;;;2.30;2.30;;;;;;;;;;5033927;28;20446;-76
2022/08/16 14:26:56;;;;;;;2.97;2.83;;;;;;;;;;5033600;28;20400;-76
2022/08/16 14:29:22;;;;;;;3.53;2.73;;;;;;;;;;5033531;28;20411;-78
2022/08/16 14:31:48;;;;;;;2.50;2.40;;;;;;;;;;5033620;28;20852;-76
2022/08/16 14:34:14;;;;;;;2.77;2.53;;;;;;;;;;5033689;28;20465;-74
2022/08/16 14:36:40;;;;;;;2.63;2.53;;;;;;;;;;5033394;28;20408;-78
2022/08/16 14:39:06;;;;;;;2.27;2.17;;;;;;;;;;5033330;28;20475;-78